Time;durP1;ratioP1;P1;durP2;ratioP2;P2;SDS_P1;SDS_P2;PMS_P1;PMS_P2;Temp;Humidity;BMP_temperature;BMP_pressure;BME280_temperature;BME280_humidity;BME280_pressure;Samples;Min_cycle;Max_cycle;Signal;HPM_P1;HPM_P2
2023/12/07 00:00:03;;;;;;;35.53;23.15;;;;;;;2.14;88.50;98936.56;5052571;28;20036;-76
2023/12/07 00:02:28;;;;;;;35.35;20.75;;;;;;;2.19;89.27;98939.44;5055515;28;20063;-76
2023/12/07 00:04:54;;;;;;;35.22;21.60;;;;;;;2.22;88.62;98935.59;5051764;28;20067;-76
2023/12/07 00:07:19;;;;;;;34.55;21.85;;;;;;;2.18;88.97;98943.06;5058028;28;20120;-76
2023/12/07 00:09:44;;;;;;;37.50;20.92;;;;;;;2.26;88.32;98950.00;5053768;28;20059;-76
2023/12/07 00:12:10;;;;;;;37.97;21.13;;;;;;;2.16;88.31;98942.44;5051410;28;20044;-76
2023/12/07 00:14:36;;;;;;;36.40;21.63;;;;;;;2.18;88.88;98958.06;5055578;28;20102;-76
2023/12/07 00:17:01;;;;;;;37.47;20.92;;;;;;;2.27;88.23;98956.91;5054045;28;20111;-76
2023/12/07 00:19:27;;;;;;;34.25;20.63;;;;;;;2.20;88.44;98961.31;5052307;28;20037;-77
2023/12/07 00:21:52;;;;;;;36.40;21.35;;;;;;;2.26;88.63;98958.72;5053465;28;20029;-76
2023/12/07 00:24:17;;;;;;;36.55;21.10;;;;;;;2.15;88.36;98947.91;5053366;28;20036;-77
2023/12/07 00:26:43;;;;;;;35.08;23.77;;;;;;;2.17;88.06;98948.53;5049716;28;20029;-75
2023/12/07 00:29:08;;;;;;;34.17;20.88;;;;;;;2.15;89.30;98953.19;5049876;28;20041;-77
2023/12/07 00:31:33;;;;;;;33.78;21.58;;;;;;;2.32;88.43;98959.75;5050606;28;20088;-76
2023/12/07 00:33:59;;;;;;;38.75;23.55;;;;;;;2.25;88.19;98966.81;5051767;28;20037;-75
2023/12/07 00:36:24;;;;;;;31.15;20.33;;;;;;;2.27;87.89;98951.66;5053447;28;20419;-76
2023/12/07 00:38:50;;;;;;;35.83;20.80;;;;;;;2.25;87.96;98967.63;5054795;28;20072;-77
2023/12/07 00:41:15;;;;;;;34.45;22.05;;;;;;;2.36;87.93;98968.91;5054513;28;20396;-76
2023/12/07 00:43:40;;;;;;;43.20;23.10;;;;;;;2.34;87.89;98972.75;5053756;28;20047;-77
2023/12/07 00:46:09;;;;;;;36.28;21.17;;;;;;;2.34;88.17;98970.13;5051932;28;20071;-76
2023/12/07 00:48:34;;;;;;;36.97;22.02;;;;;;;2.22;88.05;98965.41;5058462;28;20028;-76
2023/12/07 00:50:59;;;;;;;35.75;21.00;;;;;;;2.38;88.08;98971.38;5052227;28;20066;-77
2023/12/07 00:53:25;;;;;;;32.28;20.27;;;;;;;2.35;87.77;98969.94;5052032;28;20033;-76
2023/12/07 00:55:50;;;;;;;35.33;21.58;;;;;;;2.28;87.81;98975.16;5051232;28;20037;-77
2023/12/07 00:58:16;;;;;;;33.13;20.60;;;;;;;2.36;87.46;98982.06;5057241;28;20124;-76
2023/12/07 01:00:41;;;;;;;36.72;23.13;;;;;;;2.33;87.39;98984.28;5059191;28;20036;-76
2023/12/07 01:03:06;;;;;;;33.10;21.50;;;;;;;2.42;87.92;98989.22;5057944;28;20107;-76
2023/12/07 01:05:32;;;;;;;35.38;20.13;;;;;;;2.28;87.80;98990.13;5057460;28;20033;-77
2023/12/07 01:07:57;;;;;;;35.30;20.77;;;;;;;2.29;88.19;98997.03;5056073;28;20055;-76
2023/12/07 01:10:22;;;;;;;39.35;23.60;;;;;;;2.21;88.29;98991.91;5059184;28;20032;-76
2023/12/07 01:12:48;;;;;;;40.08;23.05;;;;;;;2.37;88.04;99001.31;5053311;28;20029;-76
2023/12/07 01:15:13;;;;;;;36.40;20.65;;;;;;;2.24;88.23;99002.06;5052603;28;20044;-77
2023/12/07 01:17:38;;;;;;;40.50;22.83;;;;;;;2.40;87.51;99004.41;5059672;28;20067;-77
2023/12/07 01:20:11;;;;;;;35.05;21.92;;;;;;;2.35;87.74;99003.34;5056673;28;20033;-76
2023/12/07 01:22:36;;;;;;;39.20;23.15;;;;;;;2.10;89.02;99003.75;5060872;28;20046;-77
2023/12/07 01:25:02;;;;;;;33.55;22.50;;;;;;;2.24;88.78;99009.94;5061304;28;20025;-76
2023/12/07 01:27:27;;;;;;;39.55;22.88;;;;;;;2.06;89.21;99009.59;5060376;28;20060;-76
2023/12/07 01:29:53;;;;;;;38.35;23.35;;;;;;;2.20;88.54;99014.81;5064303;28;20057;-76
2023/12/07 01:32:18;;;;;;;37.70;22.52;;;;;;;2.23;88.91;99026.75;5061880;28;20037;-77
2023/12/07 01:34:43;;;;;;;41.50;24.23;;;;;;;2.30;88.36;99024.97;5054494;28;20055;-76
2023/12/07 01:37:09;;;;;;;36.42;22.77;;;;;;;2.36;88.00;99026.06;5060218;28;20029;-76
2023/12/07 01:39:34;;;;;;;41.92;23.70;;;;;;;2.25;87.92;99022.09;5059008;28;20078;-77
2023/12/07 01:41:59;;;;;;;39.30;23.60;;;;;;;2.36;88.46;99026.06;5063155;28;20042;-76
2023/12/07 01:44:26;;;;;;;41.05;23.83;;;;;;;2.19;88.18;99021.06;5052906;28;20037;-77
2023/12/07 01:46:52;;;;;;;37.15;23.25;;;;;;;2.37;88.02;99033.75;5059312;28;20029;-76
2023/12/07 01:49:17;;;;;;;37.63;23.92;;;;;;;2.20;88.32;99022.69;5062848;28;20542;-76
2023/12/07 01:51:43;;;;;;;40.65;24.77;;;;;;;2.21;88.48;99028.75;5063476;28;20035;-76
2023/12/07 01:54:08;;;;;;;45.10;26.20;;;;;;;2.10;89.18;99024.00;5058885;28;20498;-76
2023/12/07 01:56:34;;;;;;;40.25;23.98;;;;;;;2.45;88.19;99027.50;5058893;28;20047;-76
2023/12/07 01:59:00;;;;;;;42.05;23.98;;;;;;;2.36;87.94;99028.69;5056624;28;20081;-77
2023/12/07 02:01:25;;;;;;;38.47;22.70;;;;;;;2.23;88.60;99030.19;5058844;28;20033;-77
2023/12/07 02:03:51;;;;;;;39.38;23.15;;;;;;;2.27;88.10;99044.59;5056751;28;20025;-76
2023/12/07 02:06:16;;;;;;;40.95;23.70;;;;;;;2.24;88.28;99039.75;5064179;28;20127;-75
2023/12/07 02:08:43;;;;;;;38.83;23.85;;;;;;;2.21;88.20;99031.38;5060610;28;20025;-77
2023/12/07 02:11:09;;;;;;;43.78;25.35;;;;;;;2.24;88.22;99039.75;5062829;28;20676;-77
2023/12/07 02:13:40;;;;;;;42.72;25.50;;;;;;;2.30;88.40;99043.41;5059026;28;20036;-76
2023/12/07 02:16:15;;;;;;;45.17;25.58;;;;;;;2.32;88.62;99046.66;5065124;28;20043;-77
2023/12/07 02:19:26;;;;;;;44.88;24.25;;;;;;;2.28;88.06;99043.63;5055221;28;20032;-75
2023/12/07 02:22:02;;;;;;;43.03;24.73;;;;;;;2.29;88.34;99047.06;5050185;28;20108;-77
2023/12/07 02:24:33;;;;;;;38.15;24.20;;;;;;;2.26;88.70;99042.16;5061012;28;20090;-76
2023/12/07 02:26:58;;;;;;;39.58;23.67;;;;;;;2.38;88.07;99047.75;5061588;28;20028;-76
2023/12/07 02:29:24;;;;;;;44.00;24.95;;;;;;;2.18;88.24;99052.84;5061691;28;20032;-76
2023/12/07 02:31:49;;;;;;;40.78;23.30;;;;;;;2.33;87.95;99050.13;5059465;28;20020;-75
2023/12/07 02:34:15;;;;;;;41.60;23.80;;;;;;;2.41;88.04;99052.59;5064527;28;20716;-75
2023/12/07 02:36:43;;;;;;;41.72;23.52;;;;;;;2.43;87.98;99047.97;5061110;28;20541;-75
2023/12/07 02:39:12;;;;;;;43.72;24.48;;;;;;;2.44;87.93;99047.78;5068981;28;20040;-75
2023/12/07 02:41:39;;;;;;;41.17;24.13;;;;;;;2.41;87.54;99048.16;5061442;28;20032;-76
2023/12/07 02:44:05;;;;;;;43.05;23.98;;;;;;;2.44;87.43;99053.06;5061978;28;20040;-74
2023/12/07 02:46:30;;;;;;;40.92;23.80;;;;;;;2.34;87.81;99059.66;5063084;28;20027;-75
2023/12/07 02:48:58;;;;;;;42.40;23.90;;;;;;;2.30;88.25;99056.59;5057186;28;20039;-75
2023/12/07 02:51:23;;;;;;;38.97;23.92;;;;;;;2.32;88.37;99054.56;5059231;28;20381;-75
2023/12/07 02:53:48;;;;;;;38.95;23.85;;;;;;;2.32;87.70;99062.47;5060560;28;20051;-76
2023/12/07 02:56:14;;;;;;;39.05;23.60;;;;;;;2.26;88.26;99060.59;5058005;28;20044;-75
2023/12/07 02:58:39;;;;;;;45.38;23.55;;;;;;;2.09;88.87;99062.69;5047527;28;20036;-75
2023/12/07 03:01:04;;;;;;;41.35;25.00;;;;;;;2.21;88.63;99065.63;5059304;28;20106;-75
2023/12/07 03:03:30;;;;;;;39.63;25.45;;;;;;;2.22;88.38;99062.81;5061974;28;20083;-75
2023/12/07 03:05:55;;;;;;;41.20;24.83;;;;;;;2.32;88.62;99065.09;5065034;28;20040;-75
2023/12/07 03:08:21;;;;;;;46.13;26.33;;;;;;;2.33;87.88;99065.94;5061592;28;20024;-75
2023/12/07 03:10:46;;;;;;;42.70;24.27;;;;;;;2.36;88.07;99060.28;5059079;28;20428;-75
2023/12/07 03:13:11;;;;;;;41.42;25.08;;;;;;;2.29;87.80;99068.94;5065115;28;20032;-75
2023/12/07 03:15:37;;;;;;;37.42;24.38;;;;;;;2.26;87.94;99071.13;5056848;28;20495;-75
2023/12/07 03:18:02;;;;;;;41.08;25.50;;;;;;;2.29;87.94;99070.75;5056252;28;20032;-75
2023/12/07 03:20:27;;;;;;;45.40;26.83;;;;;;;2.25;87.92;99085.28;5065770;28;20031;-76
2023/12/07 03:22:53;;;;;;;48.17;25.90;;;;;;;2.28;88.20;99072.59;5053023;28;20040;-76
2023/12/07 03:25:18;;;;;;;46.88;27.55;;;;;;;2.30;88.24;99077.66;5058008;28;20029;-77
2023/12/07 03:27:43;;;;;;;43.47;26.20;;;;;;;2.32;88.38;99091.44;5059294;28;20032;-76
2023/12/07 03:30:09;;;;;;;51.92;27.35;;;;;;;2.32;88.57;99087.97;5056310;28;20033;-75
2023/12/07 03:32:34;;;;;;;43.75;25.73;;;;;;;2.37;88.08;99089.06;5061866;28;20086;-75
2023/12/07 03:35:00;;;;;;;48.83;26.85;;;;;;;2.38;87.34;99079.34;5062826;28;20393;-75
2023/12/07 03:37:25;;;;;;;48.25;25.55;;;;;;;2.32;87.40;99091.44;5061614;28;20500;-76
2023/12/07 03:39:50;;;;;;;39.10;24.10;;;;;;;2.29;87.89;99094.47;5059561;28;20033;-75
2023/12/07 03:42:17;;;;;;;43.00;24.40;;;;;;;2.26;88.17;99092.19;5059399;28;20677;-76
2023/12/07 03:44:43;;;;;;;47.47;28.10;;;;;;;2.25;88.12;99091.38;5062277;28;20043;-75
2023/12/07 03:47:09;;;;;;;41.00;25.10;;;;;;;2.37;88.43;99107.50;5059237;28;20110;-75
2023/12/07 03:49:34;;;;;;;46.03;25.67;;;;;;;2.29;88.20;99097.09;5055957;28;20063;-76
2023/12/07 03:52:00;;;;;;;41.88;25.58;;;;;;;2.50;87.17;99102.34;5063810;28;20039;-76
2023/12/07 03:54:25;;;;;;;42.35;26.20;;;;;;;2.39;87.35;99110.75;5070267;28;20064;-75
2023/12/07 03:56:50;;;;;;;44.65;25.67;;;;;;;2.37;87.84;99109.31;5063184;28;20059;-75
2023/12/07 03:59:16;;;;;;;39.55;23.90;;;;;;;2.39;87.05;99105.47;5061950;28;20053;-75
2023/12/07 04:01:41;;;;;;;49.78;27.13;;;;;;;2.33;87.86;99113.31;5058111;28;20052;-75
2023/12/07 04:04:07;;;;;;;48.53;25.17;;;;;;;2.35;87.53;99100.78;5061461;28;20020;-75
2023/12/07 04:06:32;;;;;;;47.60;26.83;;;;;;;2.42;87.32;99109.56;5059095;28;20032;-75
2023/12/07 04:08:57;;;;;;;39.88;24.10;;;;;;;2.40;87.13;99109.75;5065780;28;20384;-76
2023/12/07 04:11:23;;;;;;;39.80;23.85;;;;;;;2.37;87.46;99110.13;5060094;28;20029;-76
2023/12/07 04:13:48;;;;;;;38.03;24.70;;;;;;;2.49;87.21;99108.59;5057276;28;20413;-76
2023/12/07 04:16:14;;;;;;;42.50;25.83;;;;;;;2.44;87.13;99104.91;5061373;28;20040;-76
2023/12/07 04:18:39;;;;;;;46.20;25.73;;;;;;;2.49;87.24;99103.31;5056342;28;20051;-76
2023/12/07 04:21:05;;;;;;;45.90;26.23;;;;;;;2.39;87.14;99102.03;5060824;28;20037;-76
2023/12/07 04:23:31;;;;;;;45.42;25.58;;;;;;;2.55;87.11;99112.31;5057241;28;20032;-76
2023/12/07 04:25:56;;;;;;;50.30;27.10;;;;;;;2.51;87.17;99109.22;5065745;28;20029;-76
2023/12/07 04:28:22;;;;;;;41.55;24.23;;;;;;;2.38;87.69;99111.75;5064214;28;20477;-76
2023/12/07 04:30:47;;;;;;;44.53;25.63;;;;;;;2.43;87.68;99117.25;5058820;28;20032;-76
2023/12/07 04:33:13;;;;;;;45.13;25.30;;;;;;;2.37;87.47;99115.41;5065007;28;20056;-76
2023/12/07 04:35:38;;;;;;;42.22;24.52;;;;;;;2.27;87.67;99114.91;5062492;28;20033;-76
2023/12/07 04:38:03;;;;;;;44.30;25.55;;;;;;;2.40;87.59;99120.28;5059443;28;20589;-76
2023/12/07 04:40:29;;;;;;;44.97;26.73;;;;;;;2.52;87.10;99117.94;5059866;28;20421;-76
2023/12/07 04:42:54;;;;;;;47.67;24.63;;;;;;;2.48;87.42;99117.53;5052467;28;20028;-76
2023/12/07 04:45:19;;;;;;;42.53;24.88;;;;;;;2.41;87.46;99108.75;5061219;28;20170;-76
2023/12/07 04:47:45;;;;;;;43.03;25.40;;;;;;;2.37;87.82;99120.66;5065245;28;20033;-76
2023/12/07 04:50:11;;;;;;;43.80;25.08;;;;;;;2.17;87.54;99112.59;5066937;28;20033;-76
2023/12/07 04:52:36;;;;;;;46.88;26.33;;;;;;;2.40;87.58;99108.94;5057625;28;20056;-76
2023/12/07 04:55:02;;;;;;;47.47;26.00;;;;;;;2.40;87.72;99112.41;5068411;28;20038;-76
2023/12/07 04:57:27;;;;;;;41.95;25.20;;;;;;;2.32;87.90;99112.50;5067076;28;20050;-76
2023/12/07 04:59:52;;;;;;;42.67;24.42;;;;;;;2.36;87.70;99131.41;5061402;28;20028;-76
2023/12/07 05:02:18;;;;;;;48.10;27.63;;;;;;;2.36;87.63;99113.75;5051524;28;20068;-76
2023/12/07 05:04:44;;;;;;;46.17;25.83;;;;;;;2.42;87.50;99126.19;5059035;28;20021;-75
2023/12/07 05:07:11;;;;;;;48.67;27.48;;;;;;;2.30;87.49;99127.69;5055055;28;20135;-76
2023/12/07 05:09:36;;;;;;;50.65;26.45;;;;;;;2.31;87.36;99121.44;5064488;28;20032;-75
2023/12/07 05:12:02;;;;;;;54.28;30.75;;;;;;;2.34;88.32;99120.25;5062881;28;20032;-75
2023/12/07 05:14:27;;;;;;;48.03;26.15;;;;;;;2.31;87.23;99116.16;5069064;28;20031;-76
2023/12/07 05:16:52;;;;;;;50.13;28.15;;;;;;;2.17;88.96;99120.47;5059496;28;20033;-75
2023/12/07 05:19:25;;;;;;;53.28;27.42;;;;;;;2.25;88.25;99119.53;5054807;28;20130;-76
2023/12/07 05:21:51;;;;;;;45.95;27.52;;;;;;;2.26;88.06;99119.34;5062698;28;20469;-75
2023/12/07 05:24:16;;;;;;;55.05;29.80;;;;;;;2.26;88.35;99108.00;5061927;28;20028;-75
2023/12/07 05:26:43;;;;;;;52.85;29.48;;;;;;;2.30;87.99;99119.78;5061214;28;20382;-75
2023/12/07 05:29:08;;;;;;;57.20;28.48;;;;;;;2.34;87.31;99115.75;5058930;28;20085;-75
2023/12/07 05:31:34;;;;;;;54.95;30.40;;;;;;;2.37;87.69;99120.66;5062066;28;20035;-75
2023/12/07 05:34:00;;;;;;;49.33;28.42;;;;;;;2.43;87.49;99109.38;5066740;28;20044;-76
2023/12/07 05:36:26;;;;;;;52.08;28.50;;;;;;;2.34;87.47;99109.69;5059982;28;20029;-76
2023/12/07 05:38:51;;;;;;;51.85;27.65;;;;;;;2.40;87.38;99122.94;5063610;28;20025;-76
2023/12/07 05:41:17;;;;;;;55.97;30.52;;;;;;;2.37;87.47;99118.03;5063378;28;20033;-76
2023/12/07 05:43:42;;;;;;;51.17;28.42;;;;;;;2.32;87.27;99117.78;5060776;28;20036;-75
2023/12/07 05:46:07;;;;;;;53.13;28.08;;;;;;;2.27;88.00;99128.06;5064625;28;20489;-75
2023/12/07 05:48:33;;;;;;;55.85;29.92;;;;;;;2.28;87.90;99121.78;5059843;28;20783;-74
2023/12/07 05:50:58;;;;;;;57.78;27.25;;;;;;;2.39;87.45;99129.19;5055827;28;20025;-75
2023/12/07 05:53:24;;;;;;;51.85;27.65;;;;;;;2.31;87.85;99121.44;5056668;28;20792;-76
2023/12/07 05:55:50;;;;;;;51.72;28.38;;;;;;;2.32;87.42;99127.47;5063150;28;20043;-76
2023/12/07 05:58:17;;;;;;;50.40;28.85;;;;;;;2.28;87.55;99127.06;5062117;28;20036;-75
2023/12/07 06:00:43;;;;;;;58.22;30.63;;;;;;;2.14;88.32;99127.94;5060140;28;20596;-74
2023/12/07 06:03:09;;;;;;;51.45;28.55;;;;;;;2.20;88.12;99140.34;5062147;28;20045;-75
2023/12/07 06:05:37;;;;;;;55.00;30.13;;;;;;;2.16;88.43;99142.53;5065561;28;20031;-76
2023/12/07 06:08:04;;;;;;;53.08;28.90;;;;;;;2.14;88.53;99147.19;5061289;28;20036;-76
2023/12/07 06:10:29;;;;;;;51.50;29.63;;;;;;;2.06;88.69;99136.78;5060599;28;20035;-76
2023/12/07 06:12:56;;;;;;;51.47;28.50;;;;;;;2.13;88.60;99144.72;5057069;28;20028;-76
2023/12/07 06:15:22;;;;;;;53.33;30.25;;;;;;;2.01;88.83;99140.97;5066206;28;20111;-82
2023/12/07 06:17:47;;;;;;;52.22;29.15;;;;;;;1.99;88.73;99141.16;5061464;28;20452;-84
2023/12/07 06:20:13;;;;;;;53.95;28.10;;;;;;;2.11;88.50;99144.94;5038781;28;20025;-80
2023/12/07 06:22:38;;;;;;;57.55;29.60;;;;;;;2.11;88.59;99130.94;5059919;28;20546;-78
2023/12/07 06:25:04;;;;;;;51.15;28.30;;;;;;;2.16;88.15;99155.69;5067037;28;20028;-79
2023/12/07 06:27:30;;;;;;;58.35;30.77;;;;;;;2.09;88.42;99148.75;5059841;28;20036;-75
2023/12/07 06:29:55;;;;;;;57.40;29.88;;;;;;;2.12;88.75;99158.88;5064068;28;20626;-76
2023/12/07 06:32:20;;;;;;;53.20;29.27;;;;;;;2.07;88.62;99156.03;5055745;28;20062;-82
2023/12/07 06:34:46;;;;;;;49.63;26.65;;;;;;;2.07;88.68;99162.09;5064254;28;20529;-81
2023/12/07 06:37:11;;;;;;;54.65;30.88;;;;;;;2.13;88.47;99160.53;5062343;28;20086;-76
2023/12/07 06:39:37;;;;;;;53.28;29.40;;;;;;;2.10;88.52;99159.09;5056520;28;20036;-76
2023/12/07 06:42:06;;;;;;;57.13;30.95;;;;;;;2.07;88.72;99159.47;5056840;28;20078;-76
2023/12/07 06:44:31;;;;;;;56.70;29.55;;;;;;;2.20;88.05;99169.31;5063475;28;20139;-77
2023/12/07 06:46:56;;;;;;;55.22;30.15;;;;;;;2.10;88.00;99161.72;5068177;28;20473;-77
2023/12/07 06:49:22;;;;;;;59.25;29.30;;;;;;;2.09;88.42;99165.38;5065014;28;20039;-76
2023/12/07 06:51:47;;;;;;;54.08;28.00;;;;;;;2.03;88.60;99175.81;5061203;28;20040;-78
2023/12/07 06:54:13;;;;;;;57.97;30.38;;;;;;;2.06;88.42;99178.06;5071161;28;20059;-77
2023/12/07 06:56:39;;;;;;;54.92;29.48;;;;;;;2.01;88.82;99169.94;5070789;28;20036;-77
2023/12/07 06:59:04;;;;;;;57.25;29.92;;;;;;;2.06;88.46;99167.53;5059703;28;20037;-77
2023/12/07 07:01:29;;;;;;;57.10;31.80;;;;;;;2.16;88.08;99176.75;5066381;28;20036;-77
2023/12/07 07:03:56;;;;;;;52.72;28.70;;;;;;;2.14;88.28;99173.50;5070829;28;20020;-76
2023/12/07 07:06:21;;;;;;;51.83;28.98;;;;;;;2.07;88.16;99170.00;5069732;28;20090;-78
2023/12/07 07:08:47;;;;;;;51.38;27.40;;;;;;;2.09;88.55;99177.72;5072287;28;20494;-77
2023/12/07 07:11:15;;;;;;;50.47;27.20;;;;;;;2.19;87.66;99175.56;5073093;28;20543;-77
2023/12/07 07:13:41;;;;;;;57.53;29.73;;;;;;;2.13;88.14;99171.06;5067004;28;20123;-76
2023/12/07 07:16:07;;;;;;;53.47;28.08;;;;;;;2.11;87.89;99171.25;5060776;28;20035;-75
2023/12/07 07:18:33;;;;;;;59.13;30.33;;;;;;;2.07;87.93;99177.91;5054994;28;20040;-76
2023/12/07 07:20:58;;;;;;;56.03;28.90;;;;;;;1.99;88.33;99185.88;5051570;28;20033;-75
2023/12/07 07:23:24;;;;;;;52.28;28.85;;;;;;;1.99;88.60;99185.06;5047354;28;20021;-75
2023/12/07 07:25:49;;;;;;;53.85;28.75;;;;;;;2.07;88.29;99187.59;5056901;28;20029;-76
2023/12/07 07:28:14;;;;;;;56.25;29.08;;;;;;;1.99;88.32;99187.69;5065504;28;20040;-75
2023/12/07 07:30:40;;;;;;;51.45;27.25;;;;;;;1.99;88.60;99193.78;5053444;28;20056;-75
2023/12/07 07:33:05;;;;;;;51.40;28.30;;;;;;;2.00;88.67;99189.34;5055567;28;20040;-75
2023/12/07 07:35:31;;;;;;;56.22;30.08;;;;;;;2.06;88.15;99194.69;5069058;28;20025;-75
2023/12/07 07:37:56;;;;;;;59.08;30.83;;;;;;;2.09;88.26;99191.69;5060408;28;20120;-75
2023/12/07 07:40:21;;;;;;;54.00;29.85;;;;;;;2.06;87.96;99210.47;5059802;28;20497;-74
2023/12/07 07:42:47;;;;;;;57.17;29.73;;;;;;;2.06;87.99;99201.75;5062322;28;20044;-75
2023/12/07 07:45:12;;;;;;;55.63;28.73;;;;;;;2.09;88.08;99204.03;5062933;28;20025;-75
2023/12/07 07:47:37;;;;;;;51.65;27.50;;;;;;;2.13;88.08;99202.66;5059377;28;20144;-74
2023/12/07 07:50:05;;;;;;;52.25;29.02;;;;;;;2.16;87.55;99199.66;5059090;28;20037;-75
2023/12/07 07:52:35;;;;;;;58.63;29.05;;;;;;;2.19;87.59;99202.72;5065334;28;20059;-75
2023/12/07 07:55:02;;;;;;;51.90;28.20;;;;;;;2.12;87.78;99206.28;5069776;28;20020;-76
2023/12/07 07:57:30;;;;;;;51.95;27.33;;;;;;;2.17;87.89;99209.19;5066104;28;20396;-75
2023/12/07 07:59:56;;;;;;;50.42;28.38;;;;;;;2.11;87.96;99209.94;5061650;28;20469;-75
2023/12/07 08:02:24;;;;;;;47.67;28.35;;;;;;;2.27;87.34;99204.44;5064040;28;20033;-75
2023/12/07 08:04:51;;;;;;;52.15;29.20;;;;;;;2.26;87.52;99203.63;5056961;28;20381;-74
2023/12/07 08:07:17;;;;;;;49.30;27.00;;;;;;;2.10;87.94;99214.38;5068372;28;20388;-74
2023/12/07 08:09:42;;;;;;;47.00;27.73;;;;;;;2.18;87.71;99206.34;5062079;28;20043;-74
2023/12/07 08:12:08;;;;;;;49.03;27.80;;;;;;;2.15;87.66;99214.63;5060696;28;20028;-75
2023/12/07 08:14:35;;;;;;;46.97;27.02;;;;;;;2.15;88.25;99216.44;5061414;28;20031;-75
2023/12/07 08:17:00;;;;;;;49.95;28.52;;;;;;;2.07;88.39;99219.19;5050515;28;20104;-75
2023/12/07 08:19:26;;;;;;;49.83;29.88;;;;;;;2.19;88.05;99215.06;5052899;28;20174;-76
2023/12/07 08:21:51;;;;;;;54.13;28.77;;;;;;;2.20;88.03;99214.09;5063760;28;20060;-76
2023/12/07 08:24:16;;;;;;;55.00;29.95;;;;;;;2.34;87.78;99220.31;5066288;28;20107;-75
2023/12/07 08:26:42;;;;;;;49.83;28.17;;;;;;;2.25;87.88;99217.78;5072346;28;20036;-77
2023/12/07 08:29:07;;;;;;;55.45;29.17;;;;;;;2.22;88.30;99222.59;5069860;28;20397;-76
2023/12/07 08:31:33;;;;;;;50.15;29.40;;;;;;;2.24;88.29;99213.53;5070720;28;20499;-75
2023/12/07 08:33:58;;;;;;;50.10;26.52;;;;;;;2.33;87.81;99223.94;5063890;28;20230;-75
2023/12/07 08:36:23;;;;;;;49.35;27.33;;;;;;;2.28;87.85;99216.59;5063837;28;20036;-76
2023/12/07 08:38:49;;;;;;;52.20;27.83;;;;;;;2.31;87.74;99216.22;5063424;28;20029;-75
2023/12/07 08:41:14;;;;;;;47.72;27.95;;;;;;;2.46;87.64;99211.72;5066248;28;20056;-76
2023/12/07 08:43:40;;;;;;;50.33;28.48;;;;;;;2.39;87.62;99213.47;5070542;28;20389;-76
2023/12/07 08:46:07;;;;;;;44.08;25.95;;;;;;;2.45;87.33;99211.88;5070713;28;20393;-75
2023/12/07 08:48:33;;;;;;;40.88;23.92;;;;;;;2.50;87.55;99207.72;5065345;28;20102;-77
2023/12/07 08:50:59;;;;;;;42.03;24.33;;;;;;;2.45;87.66;99212.72;5069874;28;20865;-75
2023/12/07 08:53:24;;;;;;;42.33;25.17;;;;;;;2.49;87.27;99211.31;5058642;28;20162;-77
2023/12/07 08:55:49;;;;;;;43.80;24.02;;;;;;;2.52;86.97;99204.88;5061133;28;20028;-76
2023/12/07 08:58:15;;;;;;;41.65;24.10;;;;;;;2.60;86.41;99210.03;5054531;28;20174;-75
2023/12/07 09:00:40;;;;;;;43.00;24.90;;;;;;;2.55;86.81;99207.97;5060184;28;20056;-76
2023/12/07 09:03:06;;;;;;;41.33;24.17;;;;;;;2.62;87.15;99211.44;5062518;28;20086;-76
2023/12/07 09:05:31;;;;;;;39.15;23.20;;;;;;;2.57;86.72;99211.22;5058864;28;20155;-75
2023/12/07 09:07:56;;;;;;;42.65;23.98;;;;;;;2.66;86.80;99210.09;5059078;28;20477;-75
2023/12/07 09:10:22;;;;;;;37.95;23.40;;;;;;;2.60;86.76;99202.94;5068603;28;20081;-76
2023/12/07 09:12:48;;;;;;;37.15;24.08;;;;;;;2.68;86.64;99216.00;5065124;28;20085;-75
2023/12/07 09:15:14;;;;;;;35.97;22.23;;;;;;;2.77;85.88;99214.88;5069169;28;20080;-75
2023/12/07 09:17:39;;;;;;;36.75;21.50;;;;;;;2.81;86.53;99202.94;5064400;28;20040;-76
2023/12/07 09:20:11;;;;;;;36.92;21.67;;;;;;;2.77;86.51;99214.88;5061693;28;20400;-76
2023/12/07 09:22:37;;;;;;;37.08;20.65;;;;;;;2.91;85.63;99210.50;5059868;28;20045;-76
2023/12/07 09:25:03;;;;;;;37.83;21.30;;;;;;;2.97;85.12;99212.41;5062666;28;20036;-75
2023/12/07 09:27:31;;;;;;;35.97;21.13;;;;;;;2.86;85.97;99226.88;5068888;28;20201;-75
2023/12/07 09:29:57;;;;;;;37.03;22.45;;;;;;;2.79;86.67;99217.31;5063965;28;20036;-75
2023/12/07 09:32:22;;;;;;;33.47;21.48;;;;;;;2.89;86.12;99223.06;5067683;28;20046;-76
2023/12/07 09:34:50;;;;;;;35.90;21.30;;;;;;;2.88;85.87;99216.16;5066145;28;20028;-75
2023/12/07 09:37:16;;;;;;;34.63;21.25;;;;;;;2.93;86.09;99221.66;5059160;28;20029;-76
2023/12/07 09:39:41;;;;;;;38.20;21.67;;;;;;;2.83;86.34;99237.00;5064957;28;20032;-76
2023/12/07 09:42:07;;;;;;;33.92;20.80;;;;;;;2.93;86.07;99226.94;5064780;28;20821;-75
2023/12/07 09:44:32;;;;;;;34.33;21.08;;;;;;;3.00;85.76;99228.63;5061190;28;20032;-76
2023/12/07 09:46:57;;;;;;;38.80;22.98;;;;;;;2.82;86.14;99217.72;5065181;28;20033;-75
2023/12/07 09:49:23;;;;;;;35.78;21.25;;;;;;;2.89;86.66;99210.69;5064889;28;20025;-75
2023/12/07 09:51:49;;;;;;;40.25;22.50;;;;;;;2.68;87.94;99216.00;5068208;28;20669;-76
2023/12/07 09:54:16;;;;;;;36.88;21.65;;;;;;;2.66;89.47;99212.72;5062510;28;20123;-76
2023/12/07 09:56:43;;;;;;;34.72;20.38;;;;;;;3.04;86.54;99214.06;5057520;28;21786;-75
2023/12/07 09:59:08;;;;;;;35.35;20.73;;;;;;;3.06;86.02;99215.69;5060624;28;20066;-75
2023/12/07 10:01:35;;;;;;;34.80;21.48;;;;;;;3.04;86.13;99200.88;5060832;28;20029;-76
2023/12/07 10:04:15;;;;;;;41.90;24.00;;;;;;;2.90;87.06;99198.34;5061922;28;20033;-75
2023/12/07 10:06:45;;;;;;;36.40;21.17;;;;;;;3.12;85.92;99204.38;5065084;28;20043;-76
2023/12/07 10:09:11;;;;;;;46.28;27.73;;;;;;;2.82;86.93;99201.91;5069789;28;20397;-76
2023/12/07 10:11:36;;;;;;;35.97;21.20;;;;;;;3.04;86.96;99207.97;5064936;28;20032;-75
2023/12/07 10:14:02;;;;;;;35.72;20.85;;;;;;;3.15;85.55;99214.53;5064056;28;20124;-77
2023/12/07 10:16:27;;;;;;;40.78;22.45;;;;;;;3.17;86.00;99213.34;5067953;28;20032;-76
2023/12/07 10:18:53;;;;;;;39.88;22.77;;;;;;;3.12;86.03;99205.19;5065715;28;20516;-75
2023/12/07 10:21:32;;;;;;;43.33;25.30;;;;;;;3.13;85.75;99212.09;5065439;28;21845;-75
2023/12/07 10:23:57;;;;;;;40.58;23.73;;;;;;;3.11;85.96;99215.91;5060479;28;20021;-76
2023/12/07 10:26:23;;;;;;;42.75;23.30;;;;;;;3.10;86.42;99214.31;5062662;28;20074;-76
2023/12/07 10:28:54;;;;;;;42.95;23.98;;;;;;;3.14;85.30;99203.19;5062504;28;20063;-77
2023/12/07 10:31:19;;;;;;;39.97;24.15;;;;;;;3.03;86.30;99212.44;5069778;28;20104;-76
2023/12/07 10:33:49;;;;;;;38.67;23.50;;;;;;;3.07;86.11;99212.03;5084651;28;20067;-76
2023/12/07 10:36:15;;;;;;;36.40;23.63;;;;;;;3.20;85.86;99215.59;5076896;28;20028;-76
2023/12/07 10:38:41;;;;;;;39.80;22.75;;;;;;;3.15;85.80;99212.72;5066474;28;20100;-78
2023/12/07 10:41:09;;;;;;;40.83;23.35;;;;;;;3.09;85.74;99216.13;5062578;28;21717;-77
2023/12/07 10:43:38;;;;;;;37.92;22.73;;;;;;;3.08;85.32;99209.19;5058153;28;20032;-77
2023/12/07 10:46:05;;;;;;;45.25;24.77;;;;;;;2.99;86.55;99218.28;5057527;28;20051;-75
2023/12/07 10:48:32;;;;;;;38.35;22.95;;;;;;;3.11;85.93;99202.75;5058368;28;20044;-75
2023/12/07 10:51:00;;;;;;;36.03;23.17;;;;;;;3.15;85.46;99201.34;5066756;28;20051;-76
2023/12/07 10:53:30;;;;;;;46.63;23.98;;;;;;;2.85;86.26;99201.53;5057895;22;20046;-85
2023/12/07 10:55:59;;;;;;;42.47;23.95;;;;;;;2.89;86.53;99178.25;5013542;28;20091;-84
2023/12/07 10:58:25;;;;;;;38.40;22.25;;;;;;;2.95;87.36;99183.56;5045365;28;20514;-84
2023/12/07 11:00:52;;;;;;;37.53;21.67;;;;;;;3.07;85.83;99175.94;5047934;28;20025;-86
2023/12/07 11:03:17;;;;;;;37.35;22.83;;;;;;;2.77;87.24;99185.06;5012976;28;20030;-85
2023/12/07 11:05:46;;;;;;;44.38;22.67;;;;;;;3.15;86.12;99186.34;5038879;28;20087;-84
2023/12/07 11:08:21;;;;;;;39.70;22.73;;;;;;;3.03;86.67;99172.91;5006495;28;20402;-85
2023/12/07 11:10:53;;;;;;;34.63;22.42;;;;;;;3.10;86.83;99169.47;5022336;28;20550;-85
2023/12/07 11:13:30;;;;;;;35.88;20.42;;;;;;;3.14;86.12;99162.81;5043343;28;20029;-84
2023/12/07 11:15:57;;;;;;;34.63;20.27;;;;;;;3.10;86.10;99165.03;5024992;28;20034;-84
2023/12/07 11:18:25;;;;;;;35.33;21.70;;;;;;;3.18;85.82;99161.41;5040502;28;20504;-85